createdAt,value
2018-09-15T00:00:44.551Z,80.18
2018-09-15T00:01:50.756Z,80.00
2018-09-15T00:02:57.008Z,81.02
2018-09-15T00:04:03.256Z,81.58
2018-09-15T00:05:09.466Z,81.10
2018-09-15T00:06:15.665Z,81.60
2018-09-15T00:07:21.894Z,82.27
2018-09-15T00:08:28.107Z,83.47
2018-09-15T00:09:34.358Z,84.82
2018-09-15T00:10:41.475Z,84.93
2018-09-15T00:11:48.350Z,84.03
2018-09-15T00:12:54.365Z,84.47
2018-09-15T00:14:00.620Z,84.80
2018-09-15T00:15:06.641Z,85.06
2018-09-15T00:16:12.868Z,85.15
2018-09-15T00:17:19.104Z,84.89
2018-09-15T00:18:24.968Z,85.18
2018-09-15T00:19:31.213Z,85.41
2018-09-15T00:20:37.430Z,85.11
2018-09-15T00:21:43.678Z,85.58
2018-09-15T00:22:49.930Z,85.67
2018-09-15T00:23:56.173Z,85.46
2018-09-15T00:25:02.384Z,86.29
2018-09-15T00:26:08.266Z,86.38
2018-09-15T00:27:14.486Z,86.77
2018-09-15T00:28:20.761Z,86.88
2018-09-15T00:29:26.985Z,86.80
2018-09-15T00:30:33.236Z,86.21
2018-09-15T00:31:39.462Z,86.03
2018-09-15T00:32:45.745Z,86.31
2018-09-15T00:33:51.998Z,86.53
2018-09-15T00:34:58.249Z,86.92
2018-09-15T00:36:04.475Z,86.85
2018-09-15T00:37:10.710Z,86.34
2018-09-15T00:38:16.956Z,86.44
2018-09-15T00:39:23.204Z,86.85
2018-09-15T00:40:29.429Z,86.93
2018-09-15T00:41:35.739Z,86.78
2018-09-15T00:42:42.134Z,86.31
2018-09-15T00:43:48.375Z,86.25
2018-09-15T00:44:54.591Z,86.10
2018-09-15T00:46:00.835Z,85.81
2018-09-15T00:47:06.711Z,84.92
2018-09-15T00:48:12.953Z,85.35
2018-09-15T00:49:19.218Z,84.44
2018-09-15T00:50:25.069Z,84.18
2018-09-15T00:51:31.289Z,84.10
2018-09-15T00:52:37.547Z,83.69
2018-09-15T00:53:43.778Z,83.87
2018-09-15T00:54:50.010Z,83.53
2018-09-15T00:55:56.244Z,83.56
2018-09-15T00:57:02.442Z,83.79
2018-09-15T00:58:08.680Z,84.04
2018-09-15T00:59:14.913Z,85.30
2018-09-15T01:00:20.901Z,86.03
2018-09-15T01:01:26.109Z,86.61
2018-09-15T01:02:32.331Z,86.68
2018-09-15T01:03:38.573Z,86.21
2018-09-15T01:04:44.849Z,86.59
2018-09-15T01:05:51.110Z,86.12
2018-09-15T01:06:57.365Z,85.74
2018-09-15T01:08:03.599Z,85.52
2018-09-15T01:09:09.495Z,85.56
2018-09-15T01:10:15.562Z,85.89
2018-09-15T01:11:21.780Z,87.23
2018-09-15T01:12:28.011Z,88.58
2018-09-15T01:13:34.272Z,89.46
2018-09-15T01:14:40.476Z,89.83
2018-09-15T01:15:46.734Z,90.11
2018-09-15T01:16:52.963Z,90.21
2018-09-15T01:17:59.195Z,90.33
2018-09-15T01:19:04.757Z,89.80
2018-09-15T01:20:10.813Z,90.28
2018-09-15T01:21:16.874Z,90.10
2018-09-15T01:22:22.884Z,90.36
2018-09-15T01:23:29.119Z,89.95
2018-09-15T01:24:35.404Z,89.30
2018-09-15T01:25:41.349Z,88.96
2018-09-15T01:26:47.555Z,89.01
2018-09-15T01:27:53.799Z,89.37
2018-09-15T01:28:59.789Z,88.19
2018-09-15T01:30:05.051Z,87.75
2018-09-15T01:31:11.312Z,87.36
2018-09-15T01:32:17.537Z,87.35
2018-09-15T01:33:23.772Z,88.06
2018-09-15T01:34:30.029Z,89.80
2018-09-15T01:35:36.300Z,90.73
2018-09-15T01:36:42.554Z,90.52
2018-09-15T01:37:48.781Z,89.82
2018-09-15T01:38:55.047Z,89.63
2018-09-15T01:40:01.289Z,88.20
2018-09-15T01:41:07.546Z,87.32
2018-09-15T01:42:13.778Z,86.80
2018-09-15T01:43:20.024Z,87.04
2018-09-15T01:44:25.950Z,87.51
2018-09-15T01:45:32.004Z,87.21
2018-09-15T01:46:38.242Z,87.30
2018-09-15T01:47:44.460Z,86.52
2018-09-15T01:48:50.367Z,85.75
2018-09-15T01:49:56.378Z,85.52
2018-09-15T01:51:02.606Z,84.85
2018-09-15T01:52:08.649Z,85.14
2018-09-15T01:53:14.902Z,85.64
2018-09-15T01:54:21.156Z,86.24
2018-09-15T01:55:27.609Z,86.69
2018-09-15T01:56:33.857Z,86.97
2018-09-15T01:57:39.820Z,86.54
2018-09-15T01:58:46.210Z,86.58
2018-09-15T01:59:52.436Z,86.42
2018-09-15T02:00:58.655Z,85.76
2018-09-15T02:02:04.687Z,85.28
2018-09-15T02:03:10.636Z,84.55
2018-09-15T02:04:16.881Z,84.13
2018-09-15T02:05:23.140Z,84.11
2018-09-15T02:06:29.405Z,84.76
2018-09-15T02:07:35.622Z,84.67
2018-09-15T02:08:41.508Z,84.56
2018-09-15T02:09:47.759Z,84.19
2018-09-15T02:10:53.974Z,84.15
2018-09-15T02:12:00.193Z,84.55
2018-09-15T02:13:06.394Z,84.76
2018-09-15T02:14:12.637Z,83.86
2018-09-15T02:15:18.878Z,83.80
2018-09-15T02:16:25.178Z,83.54
2018-09-15T02:17:31.658Z,83.16
2018-09-15T02:18:37.908Z,82.69
2018-09-15T02:19:44.162Z,82.58
2018-09-15T02:20:50.394Z,83.23
2018-09-15T02:21:56.681Z,83.56
2018-09-15T02:23:02.910Z,83.27
2018-09-15T02:24:09.390Z,84.34
2018-09-15T02:25:15.647Z,84.13
2018-09-15T02:26:21.886Z,84.21
2018-09-15T02:27:28.100Z,83.48
2018-09-15T02:28:34.340Z,83.60
2018-09-15T02:29:40.624Z,83.79
2018-09-15T02:30:46.848Z,83.84
2018-09-15T02:31:53.136Z,84.73
2018-09-15T02:32:59.360Z,84.74
2018-09-15T02:34:05.577Z,84.04
2018-09-15T02:35:11.888Z,84.81
2018-09-15T02:36:17.974Z,84.70
2018-09-15T02:37:24.295Z,83.49
2018-09-15T02:38:30.520Z,83.31
2018-09-15T02:39:36.808Z,83.92
2018-09-15T02:40:43.050Z,84.24
2018-09-15T02:41:49.287Z,84.30
2018-09-15T02:42:55.500Z,84.33
2018-09-15T02:44:01.728Z,84.77
2018-09-15T02:45:07.631Z,84.17
2018-09-15T02:46:13.919Z,84.13
2018-09-15T02:47:20.159Z,84.23
2018-09-15T02:48:26.418Z,84.44
2018-09-15T02:49:32.650Z,84.46
2018-09-15T02:50:38.955Z,84.45
2018-09-15T02:51:45.181Z,84.71
2018-09-15T02:52:51.420Z,84.05
2018-09-15T02:53:57.652Z,83.81
2018-09-15T02:55:03.567Z,84.20
2018-09-15T02:56:12.825Z,84.13
2018-09-15T02:57:19.044Z,84.56
2018-09-15T02:58:24.954Z,84.24
2018-09-15T02:59:31.177Z,84.51
2018-09-15T03:00:37.129Z,84.97
2018-09-15T03:01:43.052Z,84.99
2018-09-15T03:02:49.277Z,85.05
2018-09-15T03:03:55.488Z,84.80
2018-09-15T03:05:01.770Z,84.97
2018-09-15T03:06:08.030Z,84.61
2018-09-15T03:07:14.390Z,83.06
2018-09-15T03:08:20.648Z,83.64
2018-09-15T03:09:26.892Z,83.58
2018-09-15T03:10:33.198Z,83.51
2018-09-15T03:11:39.920Z,83.40
2018-09-15T03:12:46.237Z,83.33
2018-09-15T03:13:52.496Z,83.51
2018-09-15T03:14:58.743Z,83.64
2018-09-15T03:16:04.998Z,83.48
2018-09-15T03:17:11.241Z,83.07
2018-09-15T03:18:17.471Z,82.57
2018-09-15T03:19:24.145Z,81.67
2018-09-15T03:20:35.606Z,81.61
2018-09-15T03:21:41.593Z,81.91
2018-09-15T03:22:47.813Z,81.63
2018-09-15T03:23:54.082Z,81.73
2018-09-15T03:25:00.318Z,81.46
2018-09-15T03:26:06.356Z,82.41
2018-09-15T03:27:12.562Z,83.22
2018-09-15T03:28:18.800Z,83.21
2018-09-15T03:29:25.028Z,82.28
2018-09-15T03:30:31.317Z,81.82
2018-09-15T03:31:37.582Z,82.34
2018-09-15T03:32:43.839Z,81.58
2018-09-15T03:33:50.070Z,81.66
2018-09-15T03:34:56.304Z,80.81
2018-09-15T03:36:02.567Z,80.89
2018-09-15T03:37:08.804Z,80.33
2018-09-15T03:38:15.108Z,80.17
2018-09-15T03:39:21.340Z,80.66
2018-09-15T03:40:27.594Z,81.28
2018-09-15T03:41:33.852Z,81.26
2018-09-15T03:42:40.278Z,81.28
2018-09-15T03:43:46.520Z,82.03
2018-09-15T03:44:52.745Z,82.77
2018-09-15T03:45:59.000Z,82.18
2018-09-15T03:47:05.262Z,82.27
2018-09-15T03:48:11.527Z,82.33
2018-09-15T03:49:17.753Z,82.55
2018-09-15T03:50:24.007Z,83.36
2018-09-15T03:51:30.267Z,84.02
2018-09-15T03:52:36.476Z,83.92
2018-09-15T03:53:42.729Z,84.58
2018-09-15T03:54:54.092Z,84.58
2018-09-15T03:55:59.992Z,84.27
2018-09-15T03:57:05.881Z,84.64
2018-09-15T03:58:12.132Z,84.80
2018-09-15T03:59:18.360Z,84.60
2018-09-15T04:00:24.615Z,84.40
2018-09-15T04:01:30.875Z,84.61
2018-09-15T04:02:37.148Z,84.20
2018-09-15T04:03:50.327Z,83.60
2018-09-15T04:04:55.993Z,82.56
2018-09-15T04:06:02.243Z,81.84
2018-09-15T04:07:08.478Z,81.81
2018-09-15T04:08:14.705Z,81.67
2018-09-15T04:09:20.960Z,81.41
2018-09-15T04:10:27.223Z,81.39
2018-09-15T04:11:33.508Z,82.28
2018-09-15T04:12:39.719Z,83.69
2018-09-15T04:13:45.933Z,84.77
2018-09-15T04:14:52.163Z,84.64
2018-09-15T04:15:58.416Z,84.18
2018-09-15T04:17:04.686Z,84.55
2018-09-15T04:18:10.674Z,86.14
2018-09-15T04:19:16.899Z,87.39
2018-09-15T04:20:22.781Z,87.91
2018-09-15T04:21:29.040Z,88.15
2018-09-15T04:22:35.231Z,88.13
2018-09-15T04:23:41.485Z,88.17
2018-09-15T04:24:47.724Z,87.12
2018-09-15T04:25:53.935Z,87.27
2018-09-15T04:27:00.158Z,87.01
2018-09-15T04:28:06.385Z,86.00
2018-09-15T04:29:12.620Z,85.11
2018-09-15T04:30:18.859Z,85.30
2018-09-15T04:31:25.138Z,85.63
2018-09-15T04:32:31.395Z,86.12
2018-09-15T04:33:37.622Z,87.25
2018-09-15T04:34:44.257Z,88.08
2018-09-15T04:35:50.527Z,88.38
2018-09-15T04:36:56.778Z,87.91
2018-09-15T04:38:02.996Z,87.97
2018-09-15T04:39:08.925Z,87.88
2018-09-15T04:40:15.257Z,87.12
2018-09-15T04:41:21.521Z,86.40
2018-09-15T04:42:27.755Z,85.15
2018-09-15T04:43:33.992Z,84.56
2018-09-15T04:44:40.643Z,83.61
2018-09-15T04:45:46.961Z,82.74
2018-09-15T04:46:53.594Z,82.43
2018-09-15T04:48:00.676Z,81.80
2018-09-15T04:49:07.383Z,81.48
2018-09-15T04:50:13.667Z,81.88
2018-09-15T04:51:19.916Z,82.56
2018-09-15T04:52:26.162Z,82.76
2018-09-15T04:53:32.420Z,83.07
2018-09-15T04:54:38.643Z,82.55
2018-09-15T04:55:44.879Z,81.51
2018-09-15T04:56:51.195Z,81.93
2018-09-15T04:57:57.441Z,82.36
2018-09-15T04:59:03.307Z,81.87
2018-09-15T05:00:09.581Z,81.62
2018-09-15T05:01:15.517Z,82.18
2018-09-15T05:02:21.788Z,82.05
2018-09-15T05:03:27.838Z,81.48
2018-09-15T05:04:34.079Z,81.97
2018-09-15T05:05:40.316Z,81.76
2018-09-15T05:06:46.594Z,82.09
2018-09-15T05:07:52.908Z,82.21
2018-09-15T05:08:59.190Z,82.05
2018-09-15T05:10:06.426Z,82.45
2018-09-15T05:11:13.326Z,83.01
2018-09-15T05:12:19.605Z,82.69
2018-09-15T05:13:26.098Z,82.60
2018-09-15T05:14:32.351Z,82.16
2018-09-15T05:15:38.587Z,81.83
2018-09-15T05:16:44.885Z,81.49
2018-09-15T05:17:51.176Z,81.50
2018-09-15T05:18:57.434Z,80.93
2018-09-15T05:20:03.295Z,81.63
2018-09-15T05:21:09.571Z,81.82
2018-09-15T05:22:15.852Z,81.76
2018-09-15T05:23:23.356Z,82.04
2018-09-15T05:24:29.841Z,82.32
2018-09-15T05:25:36.153Z,81.57
2018-09-15T05:26:42.641Z,81.39
2018-09-15T05:27:49.076Z,81.41
2018-09-15T05:28:56.188Z,81.38
2018-09-15T05:30:02.517Z,81.27
2018-09-15T05:31:08.976Z,81.65
2018-09-15T05:32:15.407Z,82.22
2018-09-15T05:33:22.031Z,82.16
2018-09-15T05:34:28.601Z,82.65
2018-09-15T05:35:35.720Z,82.67
2018-09-15T05:36:43.101Z,82.67
2018-09-15T05:37:49.722Z,81.42
2018-09-15T05:38:55.959Z,80.34
2018-09-15T05:40:02.598Z,79.50
2018-09-15T05:41:10.473Z,79.52
2018-09-15T05:42:17.628Z,79.16
2018-09-15T05:43:24.003Z,79.13
2018-09-15T05:44:30.488Z,79.53
2018-09-15T05:45:36.931Z,79.54
2018-09-15T05:46:43.227Z,79.10
2018-09-15T05:47:49.648Z,79.70
2018-09-15T05:48:56.067Z,79.83
2018-09-15T05:50:02.509Z,80.08
2018-09-15T05:51:08.779Z,79.62
2018-09-15T05:52:15.199Z,78.54
2018-09-15T05:53:21.582Z,79.07
2018-09-15T05:54:27.959Z,78.49
2018-09-15T05:55:34.369Z,77.98
2018-09-15T05:56:41.164Z,78.11
2018-09-15T05:57:47.814Z,78.10
2018-09-15T05:58:54.117Z,77.93
2018-09-15T06:00:00.363Z,78.18
2018-09-15T06:01:07.759Z,78.62
2018-09-15T06:02:14.793Z,78.57
2018-09-15T06:03:21.439Z,78.11
2018-09-15T06:04:28.847Z,79.06
2018-09-15T06:05:35.432Z,78.43
2018-09-15T06:06:42.204Z,77.48
2018-09-15T06:07:48.878Z,77.09
2018-09-15T06:08:55.310Z,78.44
2018-09-15T06:10:02.364Z,78.47
2018-09-15T06:11:09.190Z,78.80
2018-09-15T06:12:16.934Z,78.20
2018-09-15T06:13:24.242Z,78.93
2018-09-15T06:14:31.656Z,77.99
2018-09-15T06:15:38.228Z,78.17
2018-09-15T06:16:45.444Z,77.35
2018-09-15T06:17:51.561Z,77.20
2018-09-15T06:18:59.450Z,77.50
2018-09-15T06:20:05.630Z,76.79
2018-09-15T06:21:12.007Z,76.69
2018-09-15T06:22:19.116Z,76.55
2018-09-15T06:23:27.747Z,76.49
2018-09-15T06:24:34.374Z,76.72
2018-09-15T06:25:40.721Z,76.25
2018-09-15T06:26:46.846Z,76.40
2018-09-15T06:27:53.645Z,75.72
2018-09-15T06:28:59.927Z,74.98
2018-09-15T06:30:06.005Z,75.09
2018-09-15T06:31:12.861Z,75.13
2018-09-15T06:32:19.414Z,75.61
2018-09-15T06:33:26.171Z,75.39
2018-09-15T06:34:33.071Z,74.63
2018-09-15T06:35:39.315Z,74.67
2018-09-15T06:36:47.934Z,74.05
2018-09-15T06:37:55.095Z,73.67
2018-09-15T06:39:02.666Z,73.92
2018-09-15T06:40:09.772Z,73.96
2018-09-15T06:41:17.310Z,73.60
2018-09-15T06:42:24.573Z,74.17
2018-09-15T06:43:31.849Z,73.75
2018-09-15T06:44:39.379Z,73.99
2018-09-15T06:45:46.946Z,73.97
2018-09-15T06:46:54.848Z,74.34
2018-09-15T06:48:02.168Z,74.57
2018-09-15T06:49:08.995Z,74.31
2018-09-15T06:50:16.567Z,73.52
2018-09-15T06:51:24.070Z,73.15
2018-09-15T06:52:31.589Z,72.80
2018-09-15T06:53:38.743Z,72.88
2018-09-15T06:54:47.023Z,72.97
2018-09-15T06:55:54.211Z,73.03
2018-09-15T06:57:01.626Z,72.06
2018-09-15T06:58:09.667Z,71.76
2018-09-15T06:59:16.589Z,71.38
2018-09-15T07:00:23.557Z,71.02
2018-09-15T07:01:30.909Z,70.56
2018-09-15T07:02:42.902Z,70.64
2018-09-15T07:03:50.882Z,70.59
2018-09-15T07:04:58.006Z,70.66
2018-09-15T07:06:05.656Z,70.30
2018-09-15T07:07:13.245Z,69.64
2018-09-15T07:08:20.577Z,69.35
2018-09-15T07:09:27.906Z,69.32
2018-09-15T07:10:35.146Z,69.65
2018-09-15T07:11:42.320Z,69.44
2018-09-15T07:12:49.541Z,68.31
2018-09-15T07:13:58.639Z,67.95
2018-09-15T07:15:05.064Z,68.86
2018-09-15T07:16:11.726Z,68.89
2018-09-15T07:17:18.497Z,68.89
2018-09-15T07:18:25.060Z,68.27
2018-09-15T07:19:31.879Z,68.36
2018-09-15T07:20:38.414Z,66.62
2018-09-15T07:21:45.200Z,66.06
2018-09-15T07:22:51.975Z,65.65
2018-09-15T07:23:59.033Z,65.82
2018-09-15T07:25:04.625Z,65.67
2018-09-15T07:26:10.938Z,66.48
2018-09-15T07:27:17.688Z,66.32
2018-09-15T07:28:24.624Z,66.12
2018-09-15T07:29:30.957Z,64.94
2018-09-15T07:30:37.466Z,64.56
2018-09-15T07:31:44.080Z,65.18
2018-09-15T07:32:51.194Z,65.58
2018-09-15T07:33:58.066Z,64.47
2018-09-15T07:35:04.797Z,64.82
2018-09-15T07:36:11.621Z,64.11
2018-09-15T07:37:18.038Z,64.37
2018-09-15T07:38:24.812Z,64.04
2018-09-15T07:39:31.721Z,63.80
2018-09-15T07:40:38.390Z,63.47
2018-09-15T07:41:45.607Z,64.03
2018-09-15T07:42:52.128Z,63.56
2018-09-15T07:43:59.058Z,64.07
2018-09-15T07:45:06.240Z,63.93
2018-09-15T07:46:12.882Z,64.41
2018-09-15T07:47:19.798Z,63.67
2018-09-15T07:48:26.656Z,64.10
2018-09-15T07:49:33.321Z,63.81
2018-09-15T07:50:39.558Z,63.96
2018-09-15T07:51:45.853Z,63.85
2018-09-15T07:52:52.313Z,63.29
2018-09-15T07:53:58.591Z,63.61
2018-09-15T07:55:04.609Z,64.09
2018-09-15T07:56:10.513Z,63.24
2018-09-15T07:57:16.731Z,63.09
2018-09-15T07:58:22.981Z,63.42
2018-09-15T07:59:29.248Z,64.19
2018-09-15T08:00:35.493Z,63.90
2018-09-15T08:01:41.740Z,63.43
2018-09-15T08:02:47.969Z,63.52
2018-09-15T08:03:53.994Z,63.06
2018-09-15T08:05:00.275Z,62.81
2018-09-15T08:06:06.136Z,62.62
2018-09-15T08:07:12.343Z,62.73
2018-09-15T08:08:19.728Z,62.72
2018-09-15T08:09:25.995Z,61.71
2018-09-15T08:10:32.224Z,61.46
2018-09-15T08:11:38.454Z,60.70
2018-09-15T08:12:44.672Z,60.71
2018-09-15T08:13:50.935Z,61.25
2018-09-15T08:14:57.268Z,62.06
2018-09-15T08:16:03.244Z,61.98
2018-09-15T08:17:09.110Z,61.84
2018-09-15T08:18:15.390Z,61.07
2018-09-15T08:19:21.319Z,61.13
2018-09-15T08:20:27.541Z,60.45
2018-09-15T08:21:33.773Z,60.37
2018-09-15T08:22:39.672Z,59.49
2018-09-15T08:23:45.881Z,59.81
2018-09-15T08:24:52.129Z,59.91
2018-09-15T08:25:58.347Z,59.42
2018-09-15T08:27:04.601Z,59.00
2018-09-15T08:28:10.854Z,58.87
2018-09-15T08:29:17.105Z,59.01
2018-09-15T08:30:23.342Z,58.63
2018-09-15T08:31:29.547Z,58.89
2018-09-15T08:32:35.760Z,58.51
2018-09-15T08:33:41.956Z,58.72
2018-09-15T08:34:48.220Z,59.69
2018-09-15T08:35:54.438Z,59.47
2018-09-15T08:37:00.676Z,59.42
2018-09-15T08:38:06.898Z,59.16
2018-09-15T08:39:13.147Z,58.35
2018-09-15T08:40:19.388Z,58.39
2018-09-15T08:41:25.451Z,58.00
2018-09-15T08:42:31.832Z,59.06
2018-09-15T08:43:38.066Z,59.02
2018-09-15T08:44:44.331Z,58.93
2018-09-15T08:45:50.577Z,58.96
2018-09-15T08:46:56.786Z,57.87
2018-09-15T08:48:03.026Z,58.21
2018-09-15T08:49:08.921Z,57.65
2018-09-15T08:50:14.904Z,58.08
2018-09-15T08:51:21.132Z,58.07
2018-09-15T08:52:27.401Z,58.09
2018-09-15T08:53:33.652Z,58.82
2018-09-15T08:54:39.621Z,58.65
2018-09-15T08:55:45.543Z,58.00
2018-09-15T08:56:51.760Z,57.35
2018-09-15T08:57:57.976Z,57.95
2018-09-15T08:59:03.830Z,58.13
2018-09-15T09:00:10.076Z,58.67
2018-09-15T09:01:16.292Z,57.90
2018-09-15T09:02:22.556Z,58.23
2018-09-15T09:03:28.799Z,57.72
2018-09-15T09:04:35.061Z,58.11
2018-09-15T09:05:41.373Z,58.79
2018-09-15T09:06:47.596Z,59.41
2018-09-15T09:07:53.819Z,58.65
2018-09-15T09:09:00.033Z,58.51
2018-09-15T09:10:05.644Z,57.86
2018-09-15T09:11:11.799Z,57.75
2018-09-15T09:12:18.237Z,57.99
2018-09-15T09:13:24.483Z,57.38
2018-09-15T09:14:30.705Z,58.11
2018-09-15T09:15:36.951Z,57.72
2018-09-15T09:16:43.162Z,57.47
2018-09-15T09:17:49.419Z,57.50
2018-09-15T09:18:55.802Z,56.89
2018-09-15T09:20:02.138Z,57.42
2018-09-15T09:21:08.137Z,56.42
2018-09-15T09:22:14.344Z,56.64
2018-09-15T09:23:20.564Z,56.33
2018-09-15T09:24:26.851Z,55.80
2018-09-15T09:25:33.116Z,55.77
2018-09-15T09:26:39.619Z,56.16
2018-09-15T09:27:46.056Z,55.89
2018-09-15T09:28:52.300Z,56.23
2018-09-15T09:29:58.529Z,55.62
2018-09-15T09:31:04.963Z,55.22
2018-09-15T09:32:11.191Z,55.15
2018-09-15T09:33:17.743Z,54.97
2018-09-15T09:34:24.094Z,55.63
2018-09-15T09:35:30.320Z,55.03
2018-09-15T09:36:36.535Z,55.61
2018-09-15T09:37:42.780Z,55.39
2018-09-15T09:38:48.992Z,55.67
2018-09-15T09:39:55.243Z,55.66
2018-09-15T09:41:01.445Z,56.75
2018-09-15T09:42:07.103Z,56.06
2018-09-15T09:43:13.096Z,54.58
2018-09-15T09:44:19.298Z,54.79
2018-09-15T09:45:25.545Z,55.57
2018-09-15T09:46:31.756Z,55.51
2018-09-15T09:47:37.962Z,55.15
2018-09-15T09:48:44.222Z,55.90
2018-09-15T09:49:50.502Z,55.41
2018-09-15T09:50:56.751Z,54.49
2018-09-15T09:52:02.980Z,54.52
2018-09-15T09:53:09.237Z,54.09
2018-09-15T09:54:15.528Z,54.78
2018-09-15T09:55:21.765Z,53.59
2018-09-15T09:56:28.044Z,54.02
2018-09-15T09:57:34.288Z,54.74
2018-09-15T09:58:40.479Z,53.66
2018-09-15T09:59:46.461Z,53.80
2018-09-15T10:00:52.477Z,53.45
2018-09-15T10:01:58.452Z,52.76
2018-09-15T10:03:04.666Z,53.09
2018-09-15T10:04:10.901Z,53.52
2018-09-15T10:05:17.142Z,53.70
2018-09-15T10:06:23.408Z,54.66
2018-09-15T10:07:29.673Z,54.21
2018-09-15T10:08:35.893Z,53.27
2018-09-15T10:09:42.120Z,52.25
2018-09-15T10:10:48.367Z,51.89
2018-09-15T10:11:54.599Z,53.48
2018-09-15T10:13:00.792Z,52.64
2018-09-15T10:14:06.631Z,53.21
2018-09-15T10:15:12.886Z,52.42
2018-09-15T10:16:19.156Z,51.78
2018-09-15T10:17:25.550Z,51.91
2018-09-15T10:18:31.570Z,51.26
2018-09-15T10:19:37.811Z,52.25
2018-09-15T10:20:44.069Z,51.77
2018-09-15T10:21:50.310Z,52.31
2018-09-15T10:22:56.572Z,52.09
2018-09-15T10:24:02.811Z,51.55
2018-09-15T10:25:09.012Z,51.15
2018-09-15T10:26:15.252Z,51.62
2018-09-15T10:27:21.465Z,51.58
2018-09-15T10:28:27.688Z,52.10
2018-09-15T10:29:33.924Z,51.41
2018-09-15T10:30:40.185Z,52.27
2018-09-15T10:31:46.441Z,52.44
2018-09-15T10:32:52.670Z,51.29
2018-09-15T10:33:58.872Z,50.78
2018-09-15T10:35:04.413Z,50.66
2018-09-15T10:36:10.656Z,51.26
2018-09-15T10:37:16.888Z,51.39
2018-09-15T10:38:23.138Z,49.63
2018-09-15T10:39:29.546Z,49.47
2018-09-15T10:40:35.819Z,49.47
2018-09-15T10:41:42.036Z,48.85
2018-09-15T10:42:48.257Z,49.64
2018-09-15T10:43:54.463Z,49.10
2018-09-15T10:45:00.671Z,49.36
2018-09-15T10:46:06.908Z,49.41
2018-09-15T10:47:13.124Z,49.21
2018-09-15T10:48:19.360Z,50.03
2018-09-15T10:49:25.591Z,49.18
2018-09-15T10:50:31.814Z,49.47
2018-09-15T10:51:38.069Z,49.83
2018-09-15T10:52:44.043Z,49.92
2018-09-15T10:53:50.053Z,50.19
2018-09-15T10:54:56.281Z,50.17
2018-09-15T10:56:02.540Z,50.93
2018-09-15T10:57:08.789Z,50.40
2018-09-15T10:58:15.047Z,48.72
2018-09-15T10:59:21.257Z,49.39
2018-09-15T11:00:27.578Z,48.80
2018-09-15T11:01:34.032Z,47.59
2018-09-15T11:02:40.254Z,48.34
2018-09-15T11:03:46.513Z,48.72
2018-09-15T11:04:52.749Z,49.57
2018-09-15T11:05:59.064Z,50.39
2018-09-15T11:07:05.094Z,49.93
2018-09-15T11:08:11.312Z,49.75
2018-09-15T11:09:17.505Z,49.97
2018-09-15T11:10:23.722Z,50.69
2018-09-15T11:11:29.952Z,52.04
2018-09-15T11:12:36.177Z,51.28
2018-09-15T11:13:42.482Z,50.28
2018-09-15T11:14:48.881Z,50.88
2018-09-15T11:15:55.176Z,50.58
2018-09-15T11:17:01.420Z,50.33
2018-09-15T11:18:07.667Z,50.36
2018-09-15T11:19:13.888Z,50.81
2018-09-15T11:20:20.087Z,50.66
2018-09-15T11:21:26.322Z,50.44
2018-09-15T11:22:32.558Z,50.25
2018-09-15T11:23:38.837Z,50.33
2018-09-15T11:24:45.053Z,50.40
2018-09-15T11:25:51.018Z,50.24
2018-09-15T11:26:57.276Z,50.90
2018-09-15T11:28:03.481Z,50.82
2018-09-15T11:29:09.770Z,51.50
2018-09-15T11:30:16.296Z,50.88
2018-09-15T11:31:22.537Z,51.49
2018-09-15T11:32:28.803Z,51.72
2018-09-15T11:33:35.008Z,51.76
2018-09-15T11:34:41.229Z,52.27
2018-09-15T11:35:47.428Z,52.33
2018-09-15T11:36:53.681Z,52.32
2018-09-15T11:37:59.891Z,52.81
2018-09-15T11:39:05.429Z,51.37
2018-09-15T11:40:12.163Z,51.80
2018-09-15T11:41:19.025Z,52.17
2018-09-15T11:42:25.371Z,51.82
2018-09-15T11:43:31.573Z,51.87
2018-09-15T11:44:37.804Z,51.97
2018-09-15T11:45:44.046Z,51.52
2018-09-15T11:46:50.305Z,51.14
2018-09-15T11:47:56.589Z,50.15
2018-09-15T11:49:03.021Z,48.61
2018-09-15T11:50:08.550Z,48.55
2018-09-15T11:51:14.765Z,49.21
2018-09-15T11:52:21.020Z,49.92
2018-09-15T11:53:27.265Z,50.80
2018-09-15T11:54:33.273Z,50.81
2018-09-15T11:55:39.272Z,51.30
2018-09-15T11:56:45.546Z,52.55
2018-09-15T11:57:51.778Z,50.53
2018-09-15T11:58:58.002Z,50.45
2018-09-15T12:00:03.680Z,51.02
2018-09-15T12:01:09.727Z,50.38
2018-09-15T12:02:15.761Z,51.42
2018-09-15T12:03:22.001Z,51.42
2018-09-15T12:04:28.225Z,50.71
2018-09-15T12:05:34.446Z,51.25
2018-09-15T12:06:40.323Z,51.20
2018-09-15T12:07:46.609Z,51.49
2018-09-15T12:08:53.029Z,52.24
2018-09-15T12:09:59.235Z,52.37
2018-09-15T12:11:05.515Z,51.55
2018-09-15T12:12:11.783Z,51.85
2018-09-15T12:13:18.037Z,51.19
2018-09-15T12:14:24.274Z,51.84
2018-09-15T12:15:30.491Z,52.38
2018-09-15T12:16:36.764Z,51.62
2018-09-15T12:17:42.983Z,50.92
2018-09-15T12:18:49.243Z,49.84
2018-09-15T12:19:55.479Z,52.32
2018-09-15T12:21:01.693Z,51.59
2018-09-15T12:22:07.931Z,51.65
2018-09-15T12:23:14.166Z,51.01
2018-09-15T12:24:20.460Z,51.24
2018-09-15T12:25:26.694Z,50.00
2018-09-15T12:26:32.917Z,50.30
2018-09-15T12:27:39.202Z,51.27
2018-09-15T12:28:45.716Z,51.07
2018-09-15T12:29:51.915Z,50.71
2018-09-15T12:30:58.143Z,50.91
2018-09-15T12:32:04.387Z,50.77
2018-09-15T12:33:10.615Z,50.79
2018-09-15T12:34:16.831Z,51.14
2018-09-15T12:35:23.109Z,51.21
2018-09-15T12:36:29.355Z,51.68
2018-09-15T12:37:35.639Z,51.54
2018-09-15T12:38:41.866Z,50.78
2018-09-15T12:39:48.102Z,51.49
2018-09-15T12:40:54.303Z,50.38
2018-09-15T12:42:00.610Z,50.52
2018-09-15T12:43:06.835Z,50.42
2018-09-15T12:44:18.363Z,50.86
2018-09-15T12:45:24.594Z,51.01
2018-09-15T12:46:30.840Z,50.58
2018-09-15T12:47:36.822Z,50.62
2018-09-15T12:48:43.071Z,50.23
2018-09-15T12:49:49.299Z,50.86
2018-09-15T12:50:55.200Z,50.67
2018-09-15T12:52:01.216Z,50.92
2018-09-15T12:53:07.280Z,51.38
2018-09-15T12:54:13.518Z,50.64
2018-09-15T12:55:19.780Z,50.42
2018-09-15T12:56:26.022Z,50.87
2018-09-15T12:57:32.267Z,50.97
2018-09-15T12:58:38.491Z,51.14
2018-09-15T12:59:44.699Z,50.90
2018-09-15T13:00:50.898Z,50.60
2018-09-15T13:01:57.097Z,50.73
2018-09-15T13:03:03.347Z,50.43
2018-09-15T13:04:09.567Z,50.44
2018-09-15T13:05:15.795Z,50.58
2018-09-15T13:06:22.032Z,51.25
2018-09-15T13:07:28.467Z,50.57
2018-09-15T13:08:34.680Z,51.09
2018-09-15T13:09:41.135Z,50.67
2018-09-15T13:10:47.337Z,50.95
2018-09-15T13:11:53.560Z,50.82
2018-09-15T13:12:59.791Z,50.99
2018-09-15T13:14:05.382Z,50.69
2018-09-15T13:15:11.655Z,50.54
2018-09-15T13:16:17.860Z,50.36
2018-09-15T13:17:23.859Z,50.47
2018-09-15T13:18:29.758Z,50.33
2018-09-15T13:19:36.008Z,50.00
2018-09-15T13:20:42.258Z,50.05
2018-09-15T13:21:48.477Z,49.78
2018-09-15T13:22:54.734Z,50.05
2018-09-15T13:24:00.972Z,49.13
2018-09-15T13:25:06.529Z,48.74
2018-09-15T13:26:12.813Z,49.19
2018-09-15T13:27:19.057Z,50.11
2018-09-15T13:28:25.318Z,49.05
2018-09-15T13:29:31.540Z,49.20
2018-09-15T13:30:37.953Z,49.42
2018-09-15T13:31:44.170Z,49.88
2018-09-15T13:32:50.403Z,50.63
2018-09-15T13:33:56.635Z,50.72
2018-09-15T13:35:02.834Z,50.41
2018-09-15T13:36:09.055Z,50.51
2018-09-15T13:37:15.291Z,49.91
2018-09-15T13:38:21.539Z,50.52
2018-09-15T13:39:27.830Z,50.13
2018-09-15T13:40:34.044Z,50.04
2018-09-15T13:41:40.248Z,49.79
2018-09-15T13:42:46.501Z,50.25
2018-09-15T13:43:52.748Z,49.39
2018-09-15T13:44:59.000Z,50.24
2018-09-15T13:46:04.669Z,50.02
2018-09-15T13:47:10.891Z,49.92
2018-09-15T13:48:17.156Z,48.35
2018-09-15T13:49:23.398Z,49.11
2018-09-15T13:50:29.668Z,48.43
2018-09-15T13:51:36.173Z,48.36
2018-09-15T13:52:42.210Z,48.61
2018-09-15T13:53:48.531Z,49.06
2018-09-15T13:54:54.790Z,49.04
2018-09-15T13:56:01.006Z,49.28
2018-09-15T13:57:07.264Z,49.93
2018-09-15T13:58:13.525Z,50.19
2018-09-15T13:59:19.412Z,49.39
2018-09-15T14:00:25.630Z,49.74
2018-09-15T14:01:31.863Z,49.69
2018-09-15T14:02:37.863Z,49.48
2018-09-15T14:03:44.119Z,48.84
2018-09-15T14:04:50.466Z,49.11
2018-09-15T14:05:56.813Z,49.69
2018-09-15T14:07:03.021Z,49.88
2018-09-15T14:08:09.325Z,50.06
2018-09-15T14:09:15.537Z,48.85
2018-09-15T14:10:21.759Z,47.46
2018-09-15T14:11:27.971Z,47.20
2018-09-15T14:12:34.191Z,47.89
2018-09-15T14:13:40.424Z,48.06
2018-09-15T14:14:46.635Z,48.13